Un Pendik — TCOD2 — position and weather

sailwx.info

Track history (hours):
 
Tides and Currents Weather Stations Pressure Air Temp Water Temp Dewpoint Dewpoint Depression Visibility Wind Speed Wind Dir Waves Ship Positions

Un Pendik

Last reported at 2017-Mar-27 09:33 UTC. Time now 2017-Mar-27 18:25 UTC.
Position N 38°51' E 014°51'.

Length 193 m; draft 6.7 m.

Type: Ship (hazmat cat A). MMSI: 271000792.

Date/timePositionNaut miles runAvg speedWind from/ knotsBaromVisibWave heightAir tempDewpointWater temp
2017-Mar-27 09:33N 38°51' E 014°51'2020.1
2017-Mar-27 08:33N 38°39' E 015°13'2020.0
2017-Mar-27 07:33N 38°26' E 015°31'1313.4
2017-Mar-27 06:33N 38°13' E 015°37'1818.2
2017-Mar-27 05:33N 37°55' E 015°40'38018.9
2017-Mar-26 09:27N 36°47' E 023°30'4620.5
2017-Mar-26 07:13N 37°26' E 024°00'16220.3
2017-Mar-25 23:13N 39°45' E 025°46'119 2.6
2017-Mar-24 02:18N 37°58' E 024°40'1418.7
2017-Mar-24 01:33N 37°45' E 024°33'2119.1
2017-Mar-24 00:28N 37°28' E 024°19'38717.6
2017-Mar-23 02:27N 37°46' E 016°11'1819.6
2017-Mar-23 01:34N 37°50' E 015°50'1817.9
2017-Mar-23 00:33N 38°03' E 015°34'1716.9
2017-Mar-22 23:33N 38°20' E 015°38'1919.3
2017-Mar-22 22:33N 38°33' E 015°20'2019.8
2017-Mar-22 21:33N 38°45' E 014°60'48519.1
2017-Mar-21 20:11N 43°04' E 005°58'4 6.3
2017-Mar-21 19:33N 43°06' E 005°54'0 0.0
2017-Mar-21 18:33N 43°06' E 005°54'0 0.0
2017-Mar-21 17:33N 43°06' E 005°54'0 0.0
2017-Mar-21 16:33N 43°06' E 005°54'0 0.0
2017-Mar-21 15:34N 43°06' E 005°54'0 0.0
2017-Mar-21 14:34N 43°06' E 005°54'0 0.0
2017-Mar-21 13:33N 43°06' E 005°54'0 0.0
2017-Mar-21 12:34N 43°06' E 005°54'0 0.0
2017-Mar-21 11:34N 43°06' E 005°54'0 0.0
2017-Mar-21 10:33N 43°06' E 005°54'0 0.0
2017-Mar-21 09:34N 43°06' E 005°54'4 4.4
2017-Mar-21 08:33N 43°05' E 005°59'41219.5
2017-Mar-20 11:26N 39°24' E 013°42'5920.1
2017-Mar-20 08:29N 38°53' E 014°47'1920.6
2017-Mar-20 07:33N 38°42' E 015°08'2020.3
2017-Mar-20 06:33N 38°29' E 015°27'1717.3
2017-Mar-20 05:33N 38°16' E 015°41'1313.1
2017-Mar-20 04:33N 38°03' E 015°36'1817.6
2017-Mar-20 03:33N 37°51' E 015°52'39317.5
2017-Mar-19 05:07N 37°36' E 024°09'1120.2
2017-Mar-19 04:34N 37°45' E 024°18'  
Track history (hours):
 
Tides and Currents Weather Stations Pressure Air Temp Water Temp Dewpoint Dewpoint Depression Visibility Wind Speed Wind Dir Waves Ship Positions

Un Pendik

Last reported at 2017-Mar-27 09:33 UTC. Time now 2017-Mar-27 18:25 UTC.
Position N 38°51' E 014°51'.

Length 193 m; draft 6.7 m.

Type: Ship (hazmat cat A). MMSI: 271000792.

Date/timePositionNaut miles runAvg speedWind from/ knotsBaromVisibWave heightAir tempDewpointWater temp
2017-Mar-27 09:33N 38°51' E 014°51'2020.1
2017-Mar-27 08:33N 38°39' E 015°13'2020.0
2017-Mar-27 07:33N 38°26' E 015°31'1313.4
2017-Mar-27 06:33N 38°13' E 015°37'1818.2
2017-Mar-27 05:33N 37°55' E 015°40'38018.9
2017-Mar-26 09:27N 36°47' E 023°30'4620.5
2017-Mar-26 07:13N 37°26' E 024°00'16220.3
2017-Mar-25 23:13N 39°45' E 025°46'119 2.6
2017-Mar-24 02:18N 37°58' E 024°40'1418.7
2017-Mar-24 01:33N 37°45' E 024°33'2119.1
2017-Mar-24 00:28N 37°28' E 024°19'38717.6
2017-Mar-23 02:27N 37°46' E 016°11'1819.6
2017-Mar-23 01:34N 37°50' E 015°50'1817.9
2017-Mar-23 00:33N 38°03' E 015°34'1716.9
2017-Mar-22 23:33N 38°20' E 015°38'1919.3
2017-Mar-22 22:33N 38°33' E 015°20'2019.8
2017-Mar-22 21:33N 38°45' E 014°60'48519.1
2017-Mar-21 20:11N 43°04' E 005°58'4 6.3
2017-Mar-21 19:33N 43°06' E 005°54'0 0.0
2017-Mar-21 18:33N 43°06' E 005°54'0 0.0
2017-Mar-21 17:33N 43°06' E 005°54'0 0.0
2017-Mar-21 16:33N 43°06' E 005°54'0 0.0
2017-Mar-21 15:34N 43°06' E 005°54'0 0.0
2017-Mar-21 14:34N 43°06' E 005°54'0 0.0
2017-Mar-21 13:33N 43°06' E 005°54'0 0.0
2017-Mar-21 12:34N 43°06' E 005°54'0 0.0
2017-Mar-21 11:34N 43°06' E 005°54'0 0.0
2017-Mar-21 10:33N 43°06' E 005°54'0 0.0
2017-Mar-21 09:34N 43°06' E 005°54'4 4.4
2017-Mar-21 08:33N 43°05' E 005°59'41219.5
2017-Mar-20 11:26N 39°24' E 013°42'5920.1
2017-Mar-20 08:29N 38°53' E 014°47'1920.6
2017-Mar-20 07:33N 38°42' E 015°08'2020.3
2017-Mar-20 06:33N 38°29' E 015°27'1717.3
2017-Mar-20 05:33N 38°16' E 015°41'1313.1
2017-Mar-20 04:33N 38°03' E 015°36'1817.6
2017-Mar-20 03:33N 37°51' E 015°52'39317.5
2017-Mar-19 05:07N 37°36' E 024°09'1120.2
2017-Mar-19 04:34N 37°45' E 024°18'  

Dump ship's entire track history